sensor_id;sensor_type;location;lat;lon;timestamp;pressure;altitude;pressure_sealevel;temperature;humidity
12775;BME280;6451;42.630;23.382;2023-12-04T00:01:54;94889.59;;;0.49;100.00
12775;BME280;6451;42.630;23.382;2023-12-04T00:04:21;94885.88;;;0.40;100.00
12775;BME280;6451;42.630;23.382;2023-12-04T00:06:50;94882.38;;;0.45;100.00
12775;BME280;6451;42.630;23.382;2023-12-04T00:09:17;94906.16;;;0.51;100.00
12775;BME280;6451;42.630;23.382;2023-12-04T00:11:45;94701.38;;;-0.64;100.00
12775;BME280;6451;42.630;23.382;2023-12-04T00:14:12;94894.91;;;0.65;100.00
12775;BME280;6451;42.630;23.382;2023-12-04T00:16:41;94814.13;;;0.13;100.00
12775;BME280;6451;42.630;23.382;2023-12-04T00:19:09;94843.41;;;0.44;100.00
12775;BME280;6451;42.630;23.382;2023-12-04T00:21:37;94889.00;;;0.88;100.00
12775;BME280;6451;42.630;23.382;2023-12-04T00:24:04;94900.75;;;0.82;100.00
12775;BME280;6451;42.630;23.382;2023-12-04T00:26:31;94895.44;;;0.72;100.00
12775;BME280;6451;42.630;23.382;2023-12-04T00:28:59;94901.59;;;0.72;100.00
12775;BME280;6451;42.630;23.382;2023-12-04T00:31:26;94906.94;;;0.72;100.00
12775;BME280;6451;42.630;23.382;2023-12-04T00:33:55;94902.88;;;0.90;100.00
12775;BME280;6451;42.630;23.382;2023-12-04T00:36:21;94904.78;;;0.79;100.00
12775;BME280;6451;42.630;23.382;2023-12-04T00:38:48;94736.00;;;-0.33;100.00
12775;BME280;6451;42.630;23.382;2023-12-04T00:41:15;94873.56;;;0.70;100.00
12775;BME280;6451;42.630;23.382;2023-12-04T00:43:42;94914.06;;;0.97;100.00
12775;BME280;6451;42.630;23.382;2023-12-04T00:46:09;94919.44;;;0.87;100.00
12775;BME280;6451;42.630;23.382;2023-12-04T00:48:37;94768.53;;;-0.06;100.00
12775;BME280;6451;42.630;23.382;2023-12-04T00:51:11;94923.19;;;0.76;100.00
12775;BME280;6451;42.630;23.382;2023-12-04T00:53:38;94893.59;;;0.52;100.00
12775;BME280;6451;42.630;23.382;2023-12-04T00:56:05;94901.88;;;0.55;100.00
12775;BME280;6451;42.630;23.382;2023-12-04T00:58:32;94926.66;;;0.76;100.00
12775;BME280;6451;42.630;23.382;2023-12-04T01:00:59;94933.91;;;0.66;100.00
12775;BME280;6451;42.630;23.382;2023-12-04T01:03:26;94926.69;;;0.66;100.00
12775;BME280;6451;42.630;23.382;2023-12-04T01:05:53;94851.19;;;0.15;100.00
12775;BME280;6451;42.630;23.382;2023-12-04T01:08:21;94915.75;;;0.63;100.00
12775;BME280;6451;42.630;23.382;2023-12-04T01:10:49;94936.59;;;0.45;100.00
12775;BME280;6451;42.630;23.382;2023-12-04T01:13:16;94908.84;;;0.11;100.00
12775;BME280;6451;42.630;23.382;2023-12-04T01:15:46;94933.66;;;0.37;100.00
12775;BME280;6451;42.630;23.382;2023-12-04T01:18:17;94938.75;;;0.33;100.00
12775;BME280;6451;42.630;23.382;2023-12-04T01:20:44;94751.19;;;-0.69;100.00
12775;BME280;6451;42.630;23.382;2023-12-04T01:23:11;94897.66;;;0.24;100.00
12775;BME280;6451;42.630;23.382;2023-12-04T01:25:39;94926.69;;;0.46;100.00
12775;BME280;6451;42.630;23.382;2023-12-04T01:28:06;94888.00;;;0.23;100.00
12775;BME280;6451;42.630;23.382;2023-12-04T01:30:36;94927.25;;;0.43;100.00
12775;BME280;6451;42.630;23.382;2023-12-04T01:33:05;94935.53;;;0.41;100.00
12775;BME280;6451;42.630;23.382;2023-12-04T01:35:32;94867.50;;;-0.07;100.00
12775;BME280;6451;42.630;23.382;2023-12-04T01:37:59;94874.16;;;0.16;100.00
12775;BME280;6451;42.630;23.382;2023-12-04T01:40:27;94898.16;;;0.11;100.00
12775;BME280;6451;42.630;23.382;2023-12-04T01:42:56;94931.53;;;0.34;100.00
12775;BME280;6451;42.630;23.382;2023-12-04T01:45:24;94804.78;;;-0.66;100.00
12775;BME280;6451;42.630;23.382;2023-12-04T01:47:53;94956.88;;;0.21;100.00
12775;BME280;6451;42.630;23.382;2023-12-04T01:50:22;94938.47;;;0.24;100.00
12775;BME280;6451;42.630;23.382;2023-12-04T01:52:51;94945.91;;;0.22;100.00
12775;BME280;6451;42.630;23.382;2023-12-04T01:55:19;94907.22;;;0.05;100.00
12775;BME280;6451;42.630;23.382;2023-12-04T01:57:47;94925.66;;;0.21;100.00
12775;BME280;6451;42.630;23.382;2023-12-04T02:00:17;94945.16;;;0.32;100.00
12775;BME280;6451;42.630;23.382;2023-12-04T02:02:46;94942.19;;;0.34;100.00
12775;BME280;6451;42.630;23.382;2023-12-04T02:05:14;94948.63;;;0.33;100.00
12775;BME280;6451;42.630;23.382;2023-12-04T02:07:41;94963.81;;;0.22;100.00
12775;BME280;6451;42.630;23.382;2023-12-04T02:10:09;94892.28;;;-0.07;100.00
12775;BME280;6451;42.630;23.382;2023-12-04T02:12:36;94945.13;;;0.22;100.00
12775;BME280;6451;42.630;23.382;2023-12-04T02:15:03;94940.59;;;0.12;100.00
12775;BME280;6451;42.630;23.382;2023-12-04T02:17:32;94962.19;;;0.11;100.00
12775;BME280;6451;42.630;23.382;2023-12-04T02:20:01;94964.34;;;0.09;100.00
12775;BME280;6451;42.630;23.382;2023-12-04T02:22:29;94898.94;;;-0.30;100.00
12775;BME280;6451;42.630;23.382;2023-12-04T02:25:00;94968.09;;;0.18;100.00
12775;BME280;6451;42.630;23.382;2023-12-04T02:27:31;94956.31;;;-0.07;100.00
12775;BME280;6451;42.630;23.382;2023-12-04T02:30:01;94975.50;;;-0.05;100.00
12775;BME280;6451;42.630;23.382;2023-12-04T02:32:37;94973.38;;;-0.13;100.00
12775;BME280;6451;42.630;23.382;2023-12-04T02:35:16;94929.34;;;-0.31;100.00
12775;BME280;6451;42.630;23.382;2023-12-04T02:37:45;94908.75;;;-0.40;100.00
12775;BME280;6451;42.630;23.382;2023-12-04T02:40:15;94971.25;;;-0.01;100.00
12775;BME280;6451;42.630;23.382;2023-12-04T02:42:42;94872.66;;;-0.78;100.00
12775;BME280;6451;42.630;23.382;2023-12-04T02:45:09;94902.31;;;-0.54;100.00
12775;BME280;6451;42.630;23.382;2023-12-04T02:47:36;94857.47;;;-0.88;100.00
12775;BME280;6451;42.630;23.382;2023-12-04T02:50:03;94918.91;;;-0.37;100.00
12775;BME280;6451;42.630;23.382;2023-12-04T02:52:30;94991.03;;;0.19;100.00
12775;BME280;6451;42.630;23.382;2023-12-04T02:54:57;94982.97;;;-0.02;100.00
12775;BME280;6451;42.630;23.382;2023-12-04T02:57:27;94992.34;;;0.01;100.00
12775;BME280;6451;42.630;23.382;2023-12-04T02:59:54;94930.88;;;-0.50;100.00
12775;BME280;6451;42.630;23.382;2023-12-04T03:02:21;94986.97;;;-0.14;100.00
12775;BME280;6451;42.630;23.382;2023-12-04T03:04:47;94799.88;;;-1.15;100.00
12775;BME280;6451;42.630;23.382;2023-12-04T03:07:14;94989.09;;;-0.11;100.00
12775;BME280;6451;42.630;23.382;2023-12-04T03:09:41;94986.44;;;-0.06;100.00
12775;BME280;6451;42.630;23.382;2023-12-04T03:12:09;94911.91;;;-0.59;100.00
12775;BME280;6451;42.630;23.382;2023-12-04T03:14:42;94994.69;;;-0.18;100.00
12775;BME280;6451;42.630;23.382;2023-12-04T03:17:13;94987.47;;;-0.22;100.00
12775;BME280;6451;42.630;23.382;2023-12-04T03:19:41;94940.13;;;-0.68;100.00
12775;BME280;6451;42.630;23.382;2023-12-04T03:22:08;94990.91;;;-0.32;100.00
12775;BME280;6451;42.630;23.382;2023-12-04T03:24:35;94911.13;;;-1.17;100.00
12775;BME280;6451;42.630;23.382;2023-12-04T03:27:02;94974.28;;;-0.60;100.00
12775;BME280;6451;42.630;23.382;2023-12-04T03:29:30;94989.50;;;-0.50;100.00
12775;BME280;6451;42.630;23.382;2023-12-04T03:31:58;94975.66;;;-0.52;100.00
12775;BME280;6451;42.630;23.382;2023-12-04T03:34:25;94981.72;;;-0.62;100.00
12775;BME280;6451;42.630;23.382;2023-12-04T03:36:52;94999.38;;;-0.50;100.00
12775;BME280;6451;42.630;23.382;2023-12-04T03:39:25;95005.47;;;-0.55;100.00
12775;BME280;6451;42.630;23.382;2023-12-04T03:41:52;95004.97;;;-0.52;100.00
12775;BME280;6451;42.630;23.382;2023-12-04T03:44:20;95014.38;;;-0.87;100.00
12775;BME280;6451;42.630;23.382;2023-12-04T03:46:47;95021.94;;;-0.63;100.00
12775;BME280;6451;42.630;23.382;2023-12-04T03:49:16;95021.19;;;-0.59;100.00
12775;BME280;6451;42.630;23.382;2023-12-04T03:51:43;94853.03;;;-1.77;100.00
12775;BME280;6451;42.630;23.382;2023-12-04T03:54:11;95001.34;;;-0.83;100.00
12775;BME280;6451;42.630;23.382;2023-12-04T03:56:39;95013.66;;;-0.72;100.00
12775;BME280;6451;42.630;23.382;2023-12-04T03:59:08;94868.38;;;-1.47;100.00
12775;BME280;6451;42.630;23.382;2023-12-04T04:01:40;95008.34;;;-0.67;100.00
12775;BME280;6451;42.630;23.382;2023-12-04T04:04:08;95012.66;;;-0.56;100.00
12775;BME280;6451;42.630;23.382;2023-12-04T04:06:36;94987.03;;;-0.62;100.00
12775;BME280;6451;42.630;23.382;2023-12-04T04:09:04;95011.59;;;-0.60;100.00
12775;BME280;6451;42.630;23.382;2023-12-04T04:11:31;95007.28;;;-0.66;100.00
12775;BME280;6451;42.630;23.382;2023-12-04T04:13:58;94996.34;;;-0.69;100.00
12775;BME280;6451;42.630;23.382;2023-12-04T04:16:25;94976.59;;;-0.73;100.00
12775;BME280;6451;42.630;23.382;2023-12-04T04:18:53;94996.53;;;-0.86;100.00
12775;BME280;6451;42.630;23.382;2023-12-04T04:21:20;95022.94;;;-0.79;100.00
12775;BME280;6451;42.630;23.382;2023-12-04T04:23:48;94959.13;;;-1.06;100.00
12775;BME280;6451;42.630;23.382;2023-12-04T04:26:15;95027.34;;;-0.53;100.00
12775;BME280;6451;42.630;23.382;2023-12-04T04:28:42;95023.34;;;-0.50;100.00
12775;BME280;6451;42.630;23.382;2023-12-04T04:31:10;94993.84;;;-0.86;100.00
12775;BME280;6451;42.630;23.382;2023-12-04T04:33:44;95024.84;;;-0.75;100.00
12775;BME280;6451;42.630;23.382;2023-12-04T04:36:12;95030.69;;;-0.73;100.00
12775;BME280;6451;42.630;23.382;2023-12-04T04:38:40;94993.75;;;-1.01;100.00
12775;BME280;6451;42.630;23.382;2023-12-04T04:41:14;94906.63;;;-1.58;100.00
12775;BME280;6451;42.630;23.382;2023-12-04T04:43:41;95048.72;;;-0.85;100.00
12775;BME280;6451;42.630;23.382;2023-12-04T04:46:24;95038.16;;;-0.75;100.00
12775;BME280;6451;42.630;23.382;2023-12-04T04:48:53;94942.53;;;-1.61;100.00
12775;BME280;6451;42.630;23.382;2023-12-04T04:51:20;95015.97;;;-0.91;100.00
12775;BME280;6451;42.630;23.382;2023-12-04T04:53:47;95005.09;;;-1.21;100.00
12775;BME280;6451;42.630;23.382;2023-12-04T04:56:15;95049.31;;;-0.83;100.00
12775;BME280;6451;42.630;23.382;2023-12-04T04:58:43;95069.28;;;-0.80;100.00
12775;BME280;6451;42.630;23.382;2023-12-04T05:01:10;95075.94;;;-0.83;100.00
12775;BME280;6451;42.630;23.382;2023-12-04T05:03:37;95055.88;;;-0.96;100.00
12775;BME280;6451;42.630;23.382;2023-12-04T05:06:04;95059.63;;;-0.92;100.00
12775;BME280;6451;42.630;23.382;2023-12-04T05:08:34;95053.03;;;-0.79;100.00
12775;BME280;6451;42.630;23.382;2023-12-04T05:11:05;95018.66;;;-0.80;100.00
12775;BME280;6451;42.630;23.382;2023-12-04T05:13:33;95034.06;;;-0.88;100.00
12775;BME280;6451;42.630;23.382;2023-12-04T05:16:00;95045.59;;;-0.77;100.00
12775;BME280;6451;42.630;23.382;2023-12-04T05:18:27;94964.84;;;-1.30;100.00
12775;BME280;6451;42.630;23.382;2023-12-04T05:20:54;95066.03;;;-0.45;100.00
12775;BME280;6451;42.630;23.382;2023-12-04T05:23:22;95076.34;;;-0.59;100.00
12775;BME280;6451;42.630;23.382;2023-12-04T05:25:48;95073.47;;;-0.52;100.00
12775;BME280;6451;42.630;23.382;2023-12-04T05:28:18;95067.34;;;-0.48;100.00
12775;BME280;6451;42.630;23.382;2023-12-04T05:30:47;95069.75;;;-0.46;100.00
12775;BME280;6451;42.630;23.382;2023-12-04T05:33:14;95069.66;;;-0.62;100.00
12775;BME280;6451;42.630;23.382;2023-12-04T05:35:48;95076.84;;;-0.62;100.00
12775;BME280;6451;42.630;23.382;2023-12-04T05:38:16;95078.22;;;-0.54;100.00
12775;BME280;6451;42.630;23.382;2023-12-04T05:40:44;95076.66;;;-0.50;100.00
12775;BME280;6451;42.630;23.382;2023-12-04T05:43:12;95017.47;;;-1.00;100.00
12775;BME280;6451;42.630;23.382;2023-12-04T05:45:39;95076.44;;;-0.44;100.00
12775;BME280;6451;42.630;23.382;2023-12-04T05:48:08;95082.47;;;-0.59;100.00
12775;BME280;6451;42.630;23.382;2023-12-04T05:50:34;95087.59;;;-0.52;100.00
12775;BME280;6451;42.630;23.382;2023-12-04T05:53:03;95078.72;;;-0.68;100.00
12775;BME280;6451;42.630;23.382;2023-12-04T05:55:30;95087.94;;;-0.38;100.00
12775;BME280;6451;42.630;23.382;2023-12-04T05:58:06;95091.06;;;-0.51;100.00
12775;BME280;6451;42.630;23.382;2023-12-04T06:00:33;95083.63;;;-0.44;100.00
12775;BME280;6451;42.630;23.382;2023-12-04T06:03:00;95040.53;;;-0.78;100.00
12775;BME280;6451;42.630;23.382;2023-12-04T06:05:29;95080.41;;;-0.46;100.00
12775;BME280;6451;42.630;23.382;2023-12-04T06:07:56;95086.53;;;-0.51;100.00
12775;BME280;6451;42.630;23.382;2023-12-04T06:10:23;95087.31;;;-0.50;100.00
12775;BME280;6451;42.630;23.382;2023-12-04T06:12:53;95058.34;;;-0.84;100.00
12775;BME280;6451;42.630;23.382;2023-12-04T06:15:22;95103.28;;;-0.56;100.00
12775;BME280;6451;42.630;23.382;2023-12-04T06:17:49;95108.91;;;-0.52;100.00
12775;BME280;6451;42.630;23.382;2023-12-04T06:20:19;95014.44;;;-1.19;100.00
12775;BME280;6451;42.630;23.382;2023-12-04T06:22:48;95103.31;;;-0.50;100.00
12775;BME280;6451;42.630;23.382;2023-12-04T06:25:16;95111.28;;;-0.56;100.00
12775;BME280;6451;42.630;23.382;2023-12-04T06:27:45;95116.22;;;-0.32;100.00
12775;BME280;6451;42.630;23.382;2023-12-04T06:30:13;95115.69;;;-0.34;100.00
12775;BME280;6451;42.630;23.382;2023-12-04T06:32:40;95033.91;;;-0.76;100.00
12775;BME280;6451;42.630;23.382;2023-12-04T06:35:09;95117.56;;;-0.30;100.00
12775;BME280;6451;42.630;23.382;2023-12-04T06:37:38;95087.78;;;-0.11;100.00
12775;BME280;6451;42.630;23.382;2023-12-04T06:40:08;95107.09;;;0.16;100.00
12775;BME280;6451;42.630;23.382;2023-12-04T06:42:38;95110.53;;;0.07;100.00
12775;BME280;6451;42.630;23.382;2023-12-04T06:45:13;95107.03;;;-0.04;100.00
12775;BME280;6451;42.630;23.382;2023-12-04T06:47:40;95094.47;;;-0.04;100.00
12775;BME280;6451;42.630;23.382;2023-12-04T06:50:09;95079.56;;;0.06;100.00
12775;BME280;6451;42.630;23.382;2023-12-04T06:52:36;95140.72;;;0.17;100.00
12775;BME280;6451;42.630;23.382;2023-12-04T06:55:04;95109.31;;;-0.28;100.00
12775;BME280;6451;42.630;23.382;2023-12-04T06:57:32;95142.53;;;0.07;100.00
12775;BME280;6451;42.630;23.382;2023-12-04T07:00:00;95146.00;;;0.02;100.00
12775;BME280;6451;42.630;23.382;2023-12-04T07:02:28;95125.16;;;-0.06;100.00
12775;BME280;6451;42.630;23.382;2023-12-04T07:04:55;95115.28;;;-0.06;100.00
12775;BME280;6451;42.630;23.382;2023-12-04T07:07:22;95147.72;;;0.23;100.00
12775;BME280;6451;42.630;23.382;2023-12-04T07:09:50;95150.31;;;0.08;100.00
12775;BME280;6451;42.630;23.382;2023-12-04T07:12:17;95147.84;;;-0.04;100.00
12775;BME280;6451;42.630;23.382;2023-12-04T07:14:46;95088.66;;;-0.48;100.00
12775;BME280;6451;42.630;23.382;2023-12-04T07:17:13;95160.97;;;0.08;100.00
12775;BME280;6451;42.630;23.382;2023-12-04T07:19:40;95116.06;;;-0.15;100.00
12775;BME280;6451;42.630;23.382;2023-12-04T07:22:07;95121.13;;;-0.14;100.00
12775;BME280;6451;42.630;23.382;2023-12-04T07:24:34;95145.50;;;0.15;100.00
12775;BME280;6451;42.630;23.382;2023-12-04T07:27:01;95157.81;;;0.16;100.00
12775;BME280;6451;42.630;23.382;2023-12-04T07:29:29;95087.69;;;-0.32;100.00
12775;BME280;6451;42.630;23.382;2023-12-04T07:31:58;95159.63;;;0.06;100.00
12775;BME280;6451;42.630;23.382;2023-12-04T07:34:28;95166.34;;;0.18;100.00
12775;BME280;6451;42.630;23.382;2023-12-04T07:36:55;95104.25;;;-0.30;100.00
12775;BME280;6451;42.630;23.382;2023-12-04T07:39:22;95159.97;;;0.30;100.00
12775;BME280;6451;42.630;23.382;2023-12-04T07:41:50;95170.94;;;0.33;100.00
12775;BME280;6451;42.630;23.382;2023-12-04T07:44:19;95118.72;;;-0.10;100.00
12775;BME280;6451;42.630;23.382;2023-12-04T07:46:46;95147.94;;;0.17;100.00
12775;BME280;6451;42.630;23.382;2023-12-04T07:49:14;95164.25;;;0.25;100.00
12775;BME280;6451;42.630;23.382;2023-12-04T07:51:42;95171.91;;;0.12;100.00
12775;BME280;6451;42.630;23.382;2023-12-04T07:54:08;95159.00;;;0.51;100.00
12775;BME280;6451;42.630;23.382;2023-12-04T07:56:36;95135.53;;;0.63;100.00
12775;BME280;6451;42.630;23.382;2023-12-04T07:59:02;95164.94;;;0.78;100.00
12775;BME280;6451;42.630;23.382;2023-12-04T08:01:29;95162.56;;;0.87;100.00
12775;BME280;6451;42.630;23.382;2023-12-04T08:03:56;95173.00;;;1.09;97.88
12775;BME280;6451;42.630;23.382;2023-12-04T08:06:26;95142.75;;;0.63;96.26
12775;BME280;6451;42.630;23.382;2023-12-04T08:08:53;95172.91;;;0.63;97.15
12775;BME280;6451;42.630;23.382;2023-12-04T08:11:21;95150.47;;;0.54;96.14
12775;BME280;6451;42.630;23.382;2023-12-04T08:13:47;95175.91;;;0.87;96.63
12775;BME280;6451;42.630;23.382;2023-12-04T08:16:15;95176.13;;;0.65;93.57
12775;BME280;6451;42.630;23.382;2023-12-04T08:18:43;95152.88;;;0.61;92.11
12775;BME280;6451;42.630;23.382;2023-12-04T08:21:11;95152.59;;;0.52;90.60
12775;BME280;6451;42.630;23.382;2023-12-04T08:23:45;95114.03;;;0.22;92.77
12775;BME280;6451;42.630;23.382;2023-12-04T08:26:21;95145.69;;;0.71;92.83
12775;BME280;6451;42.630;23.382;2023-12-04T08:28:53;95166.06;;;1.23;91.96
12775;BME280;6451;42.630;23.382;2023-12-04T08:31:23;95157.78;;;1.09;90.21
12775;BME280;6451;42.630;23.382;2023-12-04T08:33:50;95044.69;;;0.33;88.78
12775;BME280;6451;42.630;23.382;2023-12-04T08:36:20;95114.97;;;0.64;87.52
12775;BME280;6451;42.630;23.382;2023-12-04T08:38:49;95018.72;;;-0.08;87.01
12775;BME280;6451;42.630;23.382;2023-12-04T08:41:18;95175.41;;;1.00;84.68
12775;BME280;6451;42.630;23.382;2023-12-04T08:43:46;95177.00;;;1.01;84.22
12775;BME280;6451;42.630;23.382;2023-12-04T08:46:13;95172.19;;;1.14;84.68
12775;BME280;6451;42.630;23.382;2023-12-04T08:48:42;95177.56;;;1.19;83.07
12775;BME280;6451;42.630;23.382;2023-12-04T08:51:15;95174.34;;;1.52;83.04
12775;BME280;6451;42.630;23.382;2023-12-04T08:53:42;95167.38;;;1.77;82.21
12775;BME280;6451;42.630;23.382;2023-12-04T08:56:11;95171.34;;;1.94;80.37
12775;BME280;6451;42.630;23.382;2023-12-04T08:58:42;95084.22;;;1.63;78.62
12775;BME280;6451;42.630;23.382;2023-12-04T09:03:47;95177.78;;;1.93;76.10
12775;BME280;6451;42.630;23.382;2023-12-04T09:06:15;95168.44;;;1.86;74.99
12775;BME280;6451;42.630;23.382;2023-12-04T09:08:42;95119.19;;;1.87;73.26
12775;BME280;6451;42.630;23.382;2023-12-04T09:11:08;95076.91;;;1.84;71.05
12775;BME280;6451;42.630;23.382;2023-12-04T09:13:43;95074.44;;;2.08;71.16
12775;BME280;6451;42.630;23.382;2023-12-04T09:16:12;95158.63;;;2.41;70.70
12775;BME280;6451;42.630;23.382;2023-12-04T09:18:48;95105.78;;;1.97;70.68
12775;BME280;6451;42.630;23.382;2023-12-04T09:21:22;95118.19;;;1.57;70.97
12775;BME280;6451;42.630;23.382;2023-12-04T09:23:55;95136.56;;;1.94;70.53
12775;BME280;6451;42.630;23.382;2023-12-04T09:26:23;95149.09;;;2.04;70.61
12775;BME280;6451;42.630;23.382;2023-12-04T09:28:53;94978.50;;;0.80;69.35
12775;BME280;6451;42.630;23.382;2023-12-04T09:31:26;95072.78;;;1.32;71.78
12775;BME280;6451;42.630;23.382;2023-12-04T09:33:53;95137.25;;;2.31;71.58
12775;BME280;6451;42.630;23.382;2023-12-04T09:36:23;95136.91;;;2.42;69.51
12775;BME280;6451;42.630;23.382;2023-12-04T09:38:52;95134.75;;;2.49;69.37
12775;BME280;6451;42.630;23.382;2023-12-04T09:41:20;95142.53;;;2.46;69.66
12775;BME280;6451;42.630;23.382;2023-12-04T09:43:47;95136.03;;;2.57;69.89
12775;BME280;6451;42.630;23.382;2023-12-04T09:46:16;95083.47;;;2.17;69.30
12775;BME280;6451;42.630;23.382;2023-12-04T09:48:44;95106.72;;;2.32;67.39
12775;BME280;6451;42.630;23.382;2023-12-04T09:51:12;95140.91;;;2.45;67.92
12775;BME280;6451;42.630;23.382;2023-12-04T09:53:41;95137.09;;;2.61;66.98
12775;BME280;6451;42.630;23.382;2023-12-04T09:56:09;95129.59;;;2.63;68.51
12775;BME280;6451;42.630;23.382;2023-12-04T09:58:44;95020.34;;;1.41;69.18
12775;BME280;6451;42.630;23.382;2023-12-04T10:01:12;95093.69;;;2.05;67.88
12775;BME280;6451;42.630;23.382;2023-12-04T10:03:41;95126.22;;;2.37;66.94
12775;BME280;6451;42.630;23.382;2023-12-04T10:06:08;95114.53;;;2.72;67.01
12775;BME280;6451;42.630;23.382;2023-12-04T10:08:36;95019.38;;;1.86;66.53
12775;BME280;6451;42.630;23.382;2023-12-04T10:11:03;95103.88;;;2.62;67.11
12775;BME280;6451;42.630;23.382;2023-12-04T10:13:31;95102.13;;;2.37;66.78
12775;BME280;6451;42.630;23.382;2023-12-04T10:15:59;95089.69;;;2.07;66.95
12775;BME280;6451;42.630;23.382;2023-12-04T10:18:26;95091.53;;;2.07;67.14
12775;BME280;6451;42.630;23.382;2023-12-04T10:20:57;95111.53;;;2.30;66.84
12775;BME280;6451;42.630;23.382;2023-12-04T10:23:37;95032.25;;;1.74;66.16
12775;BME280;6451;42.630;23.382;2023-12-04T10:26:04;95107.50;;;2.32;65.83
12775;BME280;6451;42.630;23.382;2023-12-04T10:28:34;95108.59;;;2.26;67.64
12775;BME280;6451;42.630;23.382;2023-12-04T10:31:03;95109.84;;;2.49;67.84
12775;BME280;6451;42.630;23.382;2023-12-04T10:33:32;95101.84;;;2.83;67.19
12775;BME280;6451;42.630;23.382;2023-12-04T10:36:02;95104.38;;;2.69;67.41
12775;BME280;6451;42.630;23.382;2023-12-04T10:38:30;95097.03;;;2.85;66.78
12775;BME280;6451;42.630;23.382;2023-12-04T10:41:12;94883.63;;;2.02;65.85
12775;BME280;6451;42.630;23.382;2023-12-04T10:43:46;95086.50;;;3.57;64.61
12775;BME280;6451;42.630;23.382;2023-12-04T10:46:14;95000.13;;;3.02;63.48
12775;BME280;6451;42.630;23.382;2023-12-04T10:48:44;95087.47;;;3.37;64.61
12775;BME280;6451;42.630;23.382;2023-12-04T10:51:26;95088.56;;;3.07;64.33
12775;BME280;6451;42.630;23.382;2023-12-04T10:53:53;95090.78;;;2.95;64.03
12775;BME280;6451;42.630;23.382;2023-12-04T10:56:27;95087.94;;;2.81;65.08
12775;BME280;6451;42.630;23.382;2023-12-04T10:59:02;95086.59;;;3.18;64.51
12775;BME280;6451;42.630;23.382;2023-12-04T11:01:31;95017.66;;;2.89;64.41
12775;BME280;6451;42.630;23.382;2023-12-04T11:04:03;95085.38;;;3.34;64.44
12775;BME280;6451;42.630;23.382;2023-12-04T11:06:39;94977.34;;;2.70;63.98
12775;BME280;6451;42.630;23.382;2023-12-04T11:09:08;95083.44;;;3.69;63.96
12775;BME280;6451;42.630;23.382;2023-12-04T11:11:40;95079.84;;;3.78;63.41
12775;BME280;6451;42.630;23.382;2023-12-04T11:14:12;94956.66;;;3.05;62.29
12775;BME280;6451;42.630;23.382;2023-12-04T11:16:46;95076.47;;;3.68;63.19
12775;BME280;6451;42.630;23.382;2023-12-04T11:19:20;94962.91;;;2.95;63.24
12775;BME280;6451;42.630;23.382;2023-12-04T11:21:54;95032.34;;;3.26;63.67
12775;BME280;6451;42.630;23.382;2023-12-04T11:24:26;95066.47;;;3.73;63.82
12775;BME280;6451;42.630;23.382;2023-12-04T11:26:54;95064.88;;;3.72;63.65
12775;BME280;6451;42.630;23.382;2023-12-04T11:29:26;95072.34;;;3.75;63.21
12775;BME280;6451;42.630;23.382;2023-12-04T11:31:59;95044.03;;;3.64;64.18
12775;BME280;6451;42.630;23.382;2023-12-04T11:34:26;95050.81;;;3.56;65.17
12775;BME280;6451;42.630;23.382;2023-12-04T11:36:56;94924.66;;;3.14;65.46
12775;BME280;6451;42.630;23.382;2023-12-04T11:39:25;95041.81;;;3.95;64.54
12775;BME280;6451;42.630;23.382;2023-12-04T11:41:53;95027.06;;;3.93;65.23
12775;BME280;6451;42.630;23.382;2023-12-04T11:44:20;95043.22;;;4.11;65.01
12775;BME280;6451;42.630;23.382;2023-12-04T11:47:02;95000.53;;;3.91;64.10
12775;BME280;6451;42.630;23.382;2023-12-04T11:49:30;94991.44;;;4.06;63.65
12775;BME280;6451;42.630;23.382;2023-12-04T11:51:59;95012.44;;;4.04;64.88
12775;BME280;6451;42.630;23.382;2023-12-04T11:54:28;95014.09;;;4.00;64.74
12775;BME280;6451;42.630;23.382;2023-12-04T11:56:59;95027.16;;;4.06;65.22
12775;BME280;6451;42.630;23.382;2023-12-04T11:59:27;95020.13;;;4.10;63.97
12775;BME280;6451;42.630;23.382;2023-12-04T12:01:54;94974.19;;;4.12;63.60
12775;BME280;6451;42.630;23.382;2023-12-04T12:04:24;94954.50;;;3.98;63.59
12775;BME280;6451;42.630;23.382;2023-12-04T12:06:52;94975.44;;;4.01;63.24
12775;BME280;6451;42.630;23.382;2023-12-04T12:09:22;95015.84;;;4.09;63.48
12775;BME280;6451;42.630;23.382;2023-12-04T12:11:49;94974.38;;;3.97;63.73
12775;BME280;6451;42.630;23.382;2023-12-04T12:14:20;94972.28;;;4.12;63.98
12775;BME280;6451;42.630;23.382;2023-12-04T12:16:47;95009.28;;;4.39;63.99
12775;BME280;6451;42.630;23.382;2023-12-04T12:19:14;94999.91;;;4.18;64.20
12775;BME280;6451;42.630;23.382;2023-12-04T12:21:42;95000.13;;;4.40;64.54
12775;BME280;6451;42.630;23.382;2023-12-04T12:24:11;94901.91;;;3.78;64.31
12775;BME280;6451;42.630;23.382;2023-12-04T12:26:40;94924.25;;;3.92;64.13
12775;BME280;6451;42.630;23.382;2023-12-04T12:29:08;94956.97;;;4.13;63.91
12775;BME280;6451;42.630;23.382;2023-12-04T12:31:35;94954.66;;;3.87;64.39
12775;BME280;6451;42.630;23.382;2023-12-04T12:34:02;94991.19;;;4.26;64.51
12775;BME280;6451;42.630;23.382;2023-12-04T12:36:29;94987.41;;;4.27;64.95
12775;BME280;6451;42.630;23.382;2023-12-04T12:38:58;94943.50;;;3.99;64.98
12775;BME280;6451;42.630;23.382;2023-12-04T12:41:26;94974.47;;;4.29;64.80
12775;BME280;6451;42.630;23.382;2023-12-04T12:43:54;94940.22;;;4.21;64.52
12775;BME280;6451;42.630;23.382;2023-12-04T12:46:22;94980.81;;;4.38;65.18
12775;BME280;6451;42.630;23.382;2023-12-04T12:48:52;94966.06;;;4.17;66.94
12775;BME280;6451;42.630;23.382;2023-12-04T12:51:20;94886.00;;;3.81;66.72
12775;BME280;6451;42.630;23.382;2023-12-04T12:53:55;94979.59;;;4.31;67.99
12775;BME280;6451;42.630;23.382;2023-12-04T12:56:24;94972.38;;;4.45;67.57
12775;BME280;6451;42.630;23.382;2023-12-04T12:58:55;94974.13;;;4.55;67.15
12775;BME280;6451;42.630;23.382;2023-12-04T13:01:25;94871.72;;;3.86;67.02
12775;BME280;6451;42.630;23.382;2023-12-04T13:03:57;94933.69;;;4.46;67.65
12775;BME280;6451;42.630;23.382;2023-12-04T13:06:24;94966.13;;;4.50;67.84
12775;BME280;6451;42.630;23.382;2023-12-04T13:08:51;94964.66;;;4.57;68.40
12775;BME280;6451;42.630;23.382;2023-12-04T13:11:21;94849.97;;;3.69;69.48